createdAt,value
2023-04-13T00:01:27.839Z,1.60
2023-04-13T00:06:29.927Z,1.48
2023-04-13T00:11:31.991Z,1.60
2023-04-13T00:16:33.894Z,1.20
2023-04-13T00:21:35.619Z,1.13
2023-04-13T00:26:38.280Z,1.20
2023-04-13T00:31:40.101Z,1.20
2023-04-13T00:36:42.000Z,1.20
2023-04-13T00:41:43.709Z,0.93
2023-04-13T00:46:50.316Z,1.00
2023-04-13T00:51:52.205Z,0.90
2023-04-13T00:56:54.294Z,1.10
2023-04-13T01:02:02.121Z,1.00
2023-04-13T01:07:06.920Z,1.15
2023-04-13T01:12:25.586Z,0.88
2023-04-13T01:17:30.483Z,1.15
2023-04-13T01:22:35.694Z,1.23
2023-04-13T01:27:47.021Z,0.80
2023-04-13T01:32:51.598Z,1.05
2023-04-13T01:37:53.740Z,1.23
2023-04-13T01:42:56.427Z,1.10
2023-04-13T01:48:22.606Z,1.00
2023-04-13T01:53:30.708Z,1.10
2023-04-13T01:58:34.629Z,1.13
2023-04-13T02:03:38.507Z,1.30
2023-04-13T02:08:40.631Z,3.67
2023-04-13T02:13:42.704Z,1.60
2023-04-13T02:18:44.403Z,1.20
2023-04-13T02:23:46.312Z,7.05
2023-04-13T02:28:50.092Z,1.80
2023-04-13T02:33:52.105Z,1.35
2023-04-13T02:38:54.615Z,1.05
2023-04-13T02:43:56.831Z,1.50
2023-04-13T02:48:59.100Z,1.50
2023-04-13T02:54:04.945Z,1.30
2023-04-13T02:59:06.637Z,1.20
2023-04-13T03:04:09.165Z,1.02
2023-04-13T03:09:11.938Z,1.10
2023-04-13T03:14:20.894Z,1.23
2023-04-13T03:19:23.231Z,1.00
2023-04-13T03:24:27.432Z,1.50
2023-04-13T03:29:29.206Z,1.50
2023-04-13T03:34:31.643Z,1.23
2023-04-13T03:39:33.332Z,1.08
2023-04-13T03:44:35.046Z,1.10
2023-04-13T03:49:36.732Z,1.00
2023-04-13T03:54:40.147Z,1.20
2023-04-13T03:59:42.050Z,1.67
2023-04-13T04:04:43.831Z,1.08
2023-04-13T04:09:45.550Z,2.00
2023-04-13T04:14:47.235Z,7.75
2023-04-13T04:19:48.898Z,1.13
2023-04-13T04:24:50.728Z,1.25
2023-04-13T04:29:53.493Z,1.10
2023-04-13T04:34:55.280Z,1.05
2023-04-13T04:39:56.985Z,0.85
2023-04-13T04:44:58.821Z,1.00
2023-04-13T04:50:01.846Z,0.95
2023-04-13T04:55:06.452Z,0.90
2023-04-13T05:00:17.857Z,0.80
2023-04-13T05:05:19.890Z,0.77
2023-04-13T05:10:24.564Z,0.90
2023-04-13T05:15:26.840Z,0.65
2023-04-13T05:20:28.534Z,0.73
2023-04-13T05:25:30.298Z,0.77
2023-04-13T05:30:32.752Z,0.90
2023-04-13T05:35:34.481Z,3.53
2023-04-13T05:40:36.255Z,0.98
2023-04-13T05:45:38.418Z,0.65
2023-04-13T05:50:40.138Z,1.15
2023-04-13T05:55:45.176Z,1.00
2023-04-13T06:00:48.448Z,1.05
2023-04-13T06:05:50.176Z,0.85
2023-04-13T06:10:51.932Z,1.30
2023-04-13T06:15:53.991Z,0.80
2023-04-13T06:20:57.210Z,1.45
2023-04-13T06:25:59.070Z,1.23
2023-04-13T06:31:00.921Z,1.23
2023-04-13T06:36:02.637Z,1.40
2023-04-13T06:41:04.825Z,0.95
2023-04-13T06:46:06.718Z,1.35
2023-04-13T06:51:08.712Z,1.20
2023-04-13T06:56:10.767Z,1.15
2023-04-13T07:01:13.445Z,1.30
2023-04-13T07:06:15.703Z,1.10
2023-04-13T07:11:19.265Z,1.10
2023-04-13T07:16:24.872Z,2.90
2023-04-13T07:21:27.542Z,1.20
2023-04-13T07:26:29.277Z,1.02
2023-04-13T07:31:31.477Z,1.20
2023-04-13T07:36:33.365Z,1.10
2023-04-13T07:41:38.374Z,1.08
2023-04-13T07:46:40.639Z,0.90
2023-04-13T07:51:42.613Z,1.75
2023-04-13T07:56:44.419Z,1.10
2023-04-13T08:01:46.373Z,0.95
2023-04-13T08:06:48.687Z,0.80
2023-04-13T08:11:50.464Z,0.85
2023-04-13T08:16:52.268Z,0.88
2023-04-13T08:21:54.130Z,0.70
2023-04-13T08:26:58.135Z,0.80
2023-04-13T08:31:59.966Z,0.60
2023-04-13T08:37:02.338Z,2.55
2023-04-13T08:42:04.569Z,0.80
2023-04-13T08:47:06.785Z,0.85
2023-04-13T08:52:11.026Z,0.60
2023-04-13T08:57:13.811Z,0.85
2023-04-13T09:02:16.172Z,0.80
2023-04-13T09:07:28.478Z,0.90
2023-04-13T09:12:32.365Z,0.73
2023-04-13T09:17:34.301Z,0.80
2023-04-13T09:22:36.133Z,0.90
2023-04-13T09:27:40.601Z,0.70
2023-04-13T09:32:42.317Z,1.10
2023-04-13T09:37:44.851Z,0.82
2023-04-13T09:42:57.991Z,1.05
2023-04-13T09:48:04.568Z,1.52
2023-04-13T09:53:10.632Z,0.82
2023-04-13T09:58:15.006Z,0.90
2023-04-13T10:03:19.168Z,0.65
2023-04-13T10:08:34.519Z,0.75
2023-04-13T10:13:50.723Z,0.80
2023-04-13T10:19:11.457Z,0.93
2023-04-13T10:24:13.906Z,0.77
2023-04-13T10:29:16.617Z,0.90
2023-04-13T10:34:31.365Z,0.73
2023-04-13T10:39:35.135Z,0.80
2023-04-13T10:44:50.783Z,0.68
2023-04-13T10:49:52.771Z,0.73
2023-04-13T10:54:54.995Z,0.85
2023-04-13T10:59:58.911Z,0.60
2023-04-13T11:05:01.493Z,0.70
2023-04-13T11:10:04.248Z,1.38
2023-04-13T11:15:07.995Z,0.80
2023-04-13T11:20:11.313Z,1.00
2023-04-13T11:25:13.252Z,0.82
2023-04-13T11:30:15.004Z,0.80
2023-04-13T11:35:18.465Z,0.70
2023-04-13T11:40:25.719Z,0.85
2023-04-13T11:45:29.342Z,0.60
2023-04-13T11:50:31.843Z,0.60
2023-04-13T11:55:49.759Z,0.80
2023-04-13T12:00:58.362Z,0.90
2023-04-13T12:06:04.780Z,1.00
2023-04-13T12:11:38.985Z,0.88
2023-04-13T12:17:01.526Z,0.80
2023-04-13T12:21:56.757Z,0.98
2023-04-13T12:32:16.683Z,0.75
2023-04-13T12:37:18.630Z,0.90
2023-04-13T12:42:20.650Z,0.95
2023-04-13T12:47:24.547Z,0.80
2023-04-13T12:52:28.960Z,0.70
2023-04-13T12:57:31.122Z,0.70
2023-04-13T13:02:33.179Z,0.70
2023-04-13T13:07:35.440Z,1.02
2023-04-13T13:12:37.599Z,1.10
2023-04-13T13:17:44.866Z,1.33
2023-04-13T13:22:47.591Z,0.85
2023-04-13T13:32:54.623Z,0.80
2023-04-13T13:37:57.130Z,0.70
2023-04-13T13:42:59.666Z,0.73
2023-04-13T13:48:06.964Z,0.90
2023-04-13T13:53:09.099Z,0.70
2023-04-13T13:58:11.468Z,0.80
2023-04-13T14:03:15.198Z,0.77
2023-04-13T14:08:18.368Z,3.30
2023-04-13T14:13:20.188Z,1.48
2023-04-13T14:18:23.684Z,0.95
2023-04-13T14:23:25.570Z,0.80
2023-04-13T14:28:27.476Z,0.70
2023-04-13T14:33:29.457Z,0.90
2023-04-13T14:38:31.279Z,0.70
2023-04-13T14:43:33.000Z,0.82
2023-04-13T14:48:34.907Z,0.80
2023-04-13T14:53:37.162Z,0.80
2023-04-13T14:58:39.090Z,0.80
2023-04-13T15:03:41.377Z,0.90
2023-04-13T15:08:43.263Z,0.88
2023-04-13T15:13:45.206Z,1.05
2023-04-13T15:18:49.873Z,1.08
2023-04-13T15:23:51.854Z,0.80
2023-04-13T15:28:53.760Z,0.85
2023-04-13T15:33:55.512Z,0.80
2023-04-13T15:38:57.836Z,0.80
2023-04-13T15:44:00.547Z,0.80
2023-04-13T15:49:02.616Z,1.10
2023-04-13T15:54:04.751Z,1.90
2023-04-13T15:59:06.759Z,1.00
2023-04-13T16:04:08.793Z,1.02
2023-04-13T16:09:10.925Z,0.98
2023-04-13T16:14:12.642Z,3.30
2023-04-13T16:19:18.085Z,0.77
2023-04-13T16:24:21.165Z,1.05
2023-04-13T16:29:24.794Z,0.98
2023-04-13T16:34:27.953Z,0.90
2023-04-13T16:39:29.695Z,1.40
2023-04-13T16:44:33.373Z,0.90
2023-04-13T16:49:35.204Z,1.00
2023-04-13T16:54:37.073Z,0.77
2023-04-13T16:59:38.850Z,0.93
2023-04-13T17:04:40.713Z,1.20
2023-04-13T17:09:42.494Z,1.00
2023-04-13T17:14:45.497Z,1.20
2023-04-13T17:19:47.172Z,0.80
2023-04-13T17:24:49.499Z,1.20
2023-04-13T17:29:51.312Z,0.80
2023-04-13T17:34:53.157Z,1.10
2023-04-13T17:39:54.914Z,1.20
2023-04-13T17:44:56.686Z,1.73
2023-04-13T17:49:58.594Z,1.20
2023-04-13T17:55:00.390Z,1.27
2023-04-13T18:00:02.371Z,1.58
2023-04-13T18:05:04.792Z,1.40
2023-04-13T18:10:07.102Z,2.88
2023-04-13T18:15:09.459Z,1.38
2023-04-13T18:20:11.691Z,1.30
2023-04-13T18:25:13.366Z,2.03
2023-04-13T18:30:15.766Z,2.63
2023-04-13T18:35:18.435Z,1.60
2023-04-13T18:40:22.670Z,1.40
2023-04-13T18:45:24.471Z,1.83
2023-04-13T18:50:26.699Z,1.90
2023-04-13T18:55:29.051Z,2.10
2023-04-13T19:00:32.329Z,2.72
2023-04-13T19:05:35.565Z,5.63
2023-04-13T19:10:37.333Z,3.40
2023-04-13T19:15:39.412Z,1.85
2023-04-13T19:20:41.146Z,1.95
2023-04-13T19:25:44.248Z,2.30
2023-04-13T19:30:46.457Z,3.00
2023-04-13T19:35:48.303Z,1.88
2023-04-13T19:40:50.073Z,2.55
2023-04-13T19:45:51.794Z,1.80
2023-04-13T19:50:53.605Z,2.50
2023-04-13T19:55:56.326Z,2.28
2023-04-13T20:00:59.484Z,2.10
2023-04-13T20:06:02.708Z,2.58
2023-04-13T20:11:04.722Z,2.60
2023-04-13T20:16:06.803Z,3.10
2023-04-13T20:21:10.684Z,4.57
2023-04-13T20:26:12.525Z,4.30
2023-04-13T20:31:15.413Z,3.20
2023-04-13T20:36:18.167Z,3.30
2023-04-13T20:41:21.906Z,3.08
2023-04-13T20:46:25.196Z,3.05
2023-04-13T20:51:29.637Z,3.00
2023-04-13T20:56:31.630Z,3.30
2023-04-13T21:01:33.452Z,2.78
2023-04-13T21:06:35.278Z,11.93
2023-04-13T21:11:37.037Z,6.47
2023-04-13T21:16:38.812Z,4.18
2023-04-13T21:21:40.709Z,5.03
2023-04-13T21:26:42.585Z,4.88
2023-04-13T21:31:44.318Z,4.63
2023-04-13T21:41:51.684Z,3.55
2023-04-13T21:46:53.413Z,3.72
2023-04-13T21:51:55.319Z,3.25
2023-04-13T21:56:57.037Z,2.97
2023-04-13T22:01:59.014Z,3.38
2023-04-13T22:07:00.872Z,3.20
2023-04-13T22:12:03.366Z,4.20
2023-04-13T22:17:05.175Z,3.53
2023-04-13T22:22:06.877Z,3.40
2023-04-13T22:27:08.616Z,3.22
2023-04-13T22:32:10.312Z,3.00
2023-04-13T22:37:14.601Z,3.05
2023-04-13T22:42:17.448Z,3.13
2023-04-13T22:47:19.195Z,2.65
2023-04-13T22:52:21.118Z,2.70
2023-04-13T22:57:22.787Z,3.00
2023-04-13T23:02:24.608Z,2.70
2023-04-13T23:07:26.337Z,2.72
2023-04-13T23:12:28.724Z,2.50
2023-04-13T23:17:30.788Z,2.53
2023-04-13T23:22:32.933Z,2.63
2023-04-13T23:27:34.645Z,2.28
2023-04-13T23:32:36.431Z,2.80
2023-04-13T23:37:40.255Z,2.20
2023-04-13T23:42:41.913Z,3.05
2023-04-13T23:47:43.718Z,3.30
2023-04-13T23:52:45.610Z,2.67
2023-04-13T23:57:47.670Z,2.90
